sensor_id;sensor_type;location;lat;lon;timestamp;P1;durP1;ratioP1;P2;durP2;ratioP2
54005;SDS011;39919;38.160;-122.260;2023-02-08T00:00:24;2.25;;;1.63;;
54005;SDS011;39919;38.160;-122.260;2023-02-08T00:02:55;1.90;;;1.80;;
54005;SDS011;39919;38.160;-122.260;2023-02-08T00:05:24;2.63;;;2.05;;
54005;SDS011;39919;38.160;-122.260;2023-02-08T00:07:53;2.63;;;1.38;;
54005;SDS011;39919;38.160;-122.260;2023-02-08T00:10:22;2.55;;;1.73;;
54005;SDS011;39919;38.160;-122.260;2023-02-08T00:12:52;4.65;;;1.70;;
54005;SDS011;39919;38.160;-122.260;2023-02-08T00:15:21;3.90;;;1.88;;
54005;SDS011;39919;38.160;-122.260;2023-02-08T00:17:51;3.95;;;1.90;;
54005;SDS011;39919;38.160;-122.260;2023-02-08T00:20:22;4.25;;;1.95;;
54005;SDS011;39919;38.160;-122.260;2023-02-08T00:22:51;5.07;;;1.77;;
54005;SDS011;39919;38.160;-122.260;2023-02-08T00:25:20;3.05;;;1.38;;
54005;SDS011;39919;38.160;-122.260;2023-02-08T00:27:49;4.82;;;1.77;;
54005;SDS011;39919;38.160;-122.260;2023-02-08T00:30:19;1.90;;;1.70;;
54005;SDS011;39919;38.160;-122.260;2023-02-08T00:32:48;3.13;;;0.95;;
54005;SDS011;39919;38.160;-122.260;2023-02-08T00:35:22;2.80;;;2.03;;
54005;SDS011;39919;38.160;-122.260;2023-02-08T00:38:00;1.75;;;1.42;;
54005;SDS011;39919;38.160;-122.260;2023-02-08T00:40:29;1.25;;;1.15;;
54005;SDS011;39919;38.160;-122.260;2023-02-08T00:42:59;1.80;;;1.35;;
54005;SDS011;39919;38.160;-122.260;2023-02-08T00:45:28;2.75;;;1.80;;
54005;SDS011;39919;38.160;-122.260;2023-02-08T00:47:59;2.38;;;1.80;;
54005;SDS011;39919;38.160;-122.260;2023-02-08T00:50:30;3.10;;;2.08;;
54005;SDS011;39919;38.160;-122.260;2023-02-08T00:52:59;2.75;;;1.50;;
54005;SDS011;39919;38.160;-122.260;2023-02-08T00:55:29;2.22;;;2.05;;
54005;SDS011;39919;38.160;-122.260;2023-02-08T00:57:58;1.90;;;1.75;;
54005;SDS011;39919;38.160;-122.260;2023-02-08T01:00:27;3.97;;;1.77;;
54005;SDS011;39919;38.160;-122.260;2023-02-08T01:02:59;3.50;;;1.40;;
54005;SDS011;39919;38.160;-122.260;2023-02-08T01:05:35;1.80;;;1.60;;
54005;SDS011;39919;38.160;-122.260;2023-02-08T01:08:08;1.27;;;0.90;;
54005;SDS011;39919;38.160;-122.260;2023-02-08T01:10:37;4.30;;;1.55;;
54005;SDS011;39919;38.160;-122.260;2023-02-08T01:13:06;1.83;;;1.20;;
54005;SDS011;39919;38.160;-122.260;2023-02-08T01:15:36;2.28;;;1.30;;
54005;SDS011;39919;38.160;-122.260;2023-02-08T01:18:06;1.55;;;1.35;;
54005;SDS011;39919;38.160;-122.260;2023-02-08T01:20:37;3.15;;;1.42;;
54005;SDS011;39919;38.160;-122.260;2023-02-08T01:23:06;5.00;;;2.00;;
54005;SDS011;39919;38.160;-122.260;2023-02-08T01:25:35;3.15;;;1.75;;
54005;SDS011;39919;38.160;-122.260;2023-02-08T01:28:06;1.85;;;1.63;;
54005;SDS011;39919;38.160;-122.260;2023-02-08T01:30:40;1.38;;;1.00;;
54005;SDS011;39919;38.160;-122.260;2023-02-08T01:33:09;14.13;;;1.48;;
54005;SDS011;39919;38.160;-122.260;2023-02-08T01:35:40;4.88;;;2.10;;
54005;SDS011;39919;38.160;-122.260;2023-02-08T01:38:09;2.03;;;1.70;;
54005;SDS011;39919;38.160;-122.260;2023-02-08T01:40:40;4.47;;;1.10;;
54005;SDS011;39919;38.160;-122.260;2023-02-08T01:43:10;2.35;;;1.67;;
54005;SDS011;39919;38.160;-122.260;2023-02-08T01:45:44;3.08;;;1.58;;
54005;SDS011;39919;38.160;-122.260;2023-02-08T01:48:13;1.75;;;1.65;;
54005;SDS011;39919;38.160;-122.260;2023-02-08T01:50:46;2.15;;;1.30;;
54005;SDS011;39919;38.160;-122.260;2023-02-08T01:53:19;1.92;;;0.85;;
54005;SDS011;39919;38.160;-122.260;2023-02-08T01:56:17;4.10;;;1.60;;
54005;SDS011;39919;38.160;-122.260;2023-02-08T01:59:00;2.58;;;1.30;;
54005;SDS011;39919;38.160;-122.260;2023-02-08T02:02:10;1.58;;;1.20;;
54005;SDS011;39919;38.160;-122.260;2023-02-08T02:04:43;1.00;;;0.90;;
54005;SDS011;39919;38.160;-122.260;2023-02-08T02:07:15;1.70;;;1.02;;
54005;SDS011;39919;38.160;-122.260;2023-02-08T02:09:48;1.05;;;0.55;;
54005;SDS011;39919;38.160;-122.260;2023-02-08T02:12:21;0.55;;;0.50;;
54005;SDS011;39919;38.160;-122.260;2023-02-08T02:14:52;0.73;;;0.30;;
54005;SDS011;39919;38.160;-122.260;2023-02-08T02:17:22;2.55;;;0.40;;
54005;SDS011;39919;38.160;-122.260;2023-02-08T02:19:56;4.28;;;2.08;;
54005;SDS011;39919;38.160;-122.260;2023-02-08T02:23:03;1.67;;;0.80;;
54005;SDS011;39919;38.160;-122.260;2023-02-08T02:25:57;0.82;;;0.57;;
54005;SDS011;39919;38.160;-122.260;2023-02-08T02:32:05;1.80;;;1.20;;
54005;SDS011;39919;38.160;-122.260;2023-02-08T02:34:48;1.50;;;1.40;;
54005;SDS011;39919;38.160;-122.260;2023-02-08T02:37:27;1.25;;;0.80;;
54005;SDS011;39919;38.160;-122.260;2023-02-08T02:40:07;0.88;;;0.75;;
54005;SDS011;39919;38.160;-122.260;2023-02-08T02:42:46;1.75;;;0.90;;
54005;SDS011;39919;38.160;-122.260;2023-02-08T02:45:42;1.20;;;0.90;;
54005;SDS011;39919;38.160;-122.260;2023-02-08T02:50:54;7.05;;;3.00;;
54005;SDS011;39919;38.160;-122.260;2023-02-08T02:53:28;2.50;;;1.90;;
54005;SDS011;39919;38.160;-122.260;2023-02-08T02:56:03;5.05;;;2.30;;
54005;SDS011;39919;38.160;-122.260;2023-02-08T02:58:37;4.93;;;2.00;;
54005;SDS011;39919;38.160;-122.260;2023-02-08T03:01:09;3.92;;;1.98;;
54005;SDS011;39919;38.160;-122.260;2023-02-08T03:03:40;2.42;;;1.55;;
54005;SDS011;39919;38.160;-122.260;2023-02-08T03:06:10;1.40;;;1.25;;
54005;SDS011;39919;38.160;-122.260;2023-02-08T03:11:35;5.68;;;1.48;;
54005;SDS011;39919;38.160;-122.260;2023-02-08T03:14:16;5.85;;;1.75;;
54005;SDS011;39919;38.160;-122.260;2023-02-08T03:17:00;3.08;;;1.45;;
54005;SDS011;39919;38.160;-122.260;2023-02-08T03:19:38;1.98;;;1.40;;
54005;SDS011;39919;38.160;-122.260;2023-02-08T03:22:14;2.00;;;1.00;;
54005;SDS011;39919;38.160;-122.260;2023-02-08T03:24:50;4.28;;;1.40;;
54005;SDS011;39919;38.160;-122.260;2023-02-08T03:29:59;1.73;;;1.58;;
54005;SDS011;39919;38.160;-122.260;2023-02-08T03:32:36;2.03;;;1.80;;
54005;SDS011;39919;38.160;-122.260;2023-02-08T03:35:13;2.47;;;1.80;;
54005;SDS011;39919;38.160;-122.260;2023-02-08T03:37:46;3.97;;;1.48;;
54005;SDS011;39919;38.160;-122.260;2023-02-08T03:40:23;2.35;;;1.50;;
54005;SDS011;39919;38.160;-122.260;2023-02-08T03:42:55;2.85;;;2.08;;
54005;SDS011;39919;38.160;-122.260;2023-02-08T03:45:27;3.95;;;2.55;;
54005;SDS011;39919;38.160;-122.260;2023-02-08T03:48:00;6.13;;;3.00;;
54005;SDS011;39919;38.160;-122.260;2023-02-08T03:50:35;4.25;;;2.70;;
54005;SDS011;39919;38.160;-122.260;2023-02-08T03:53:08;4.03;;;2.33;;
54005;SDS011;39919;38.160;-122.260;2023-02-08T03:55:40;2.35;;;2.10;;
54005;SDS011;39919;38.160;-122.260;2023-02-08T03:58:14;2.55;;;1.10;;
54005;SDS011;39919;38.160;-122.260;2023-02-08T04:00:57;2.33;;;1.50;;
54005;SDS011;39919;38.160;-122.260;2023-02-08T04:03:33;2.17;;;1.58;;
54005;SDS011;39919;38.160;-122.260;2023-02-08T04:06:10;4.65;;;2.50;;
54005;SDS011;39919;38.160;-122.260;2023-02-08T04:08:40;4.28;;;2.08;;
54005;SDS011;39919;38.160;-122.260;2023-02-08T04:11:09;3.78;;;3.25;;
54005;SDS011;39919;38.160;-122.260;2023-02-08T04:13:38;4.43;;;2.78;;
54005;SDS011;39919;38.160;-122.260;2023-02-08T04:16:08;4.82;;;2.38;;
54005;SDS011;39919;38.160;-122.260;2023-02-08T04:21:19;5.57;;;2.10;;
54005;SDS011;39919;38.160;-122.260;2023-02-08T04:23:48;4.53;;;2.75;;
54005;SDS011;39919;38.160;-122.260;2023-02-08T04:26:17;2.80;;;2.45;;
54005;SDS011;39919;38.160;-122.260;2023-02-08T04:28:46;3.45;;;2.35;;
54005;SDS011;39919;38.160;-122.260;2023-02-08T04:31:18;4.90;;;2.30;;
54005;SDS011;39919;38.160;-122.260;2023-02-08T04:33:47;3.47;;;2.33;;
54005;SDS011;39919;38.160;-122.260;2023-02-08T04:36:17;6.97;;;2.92;;
54005;SDS011;39919;38.160;-122.260;2023-02-08T04:38:47;6.10;;;3.15;;
54005;SDS011;39919;38.160;-122.260;2023-02-08T04:41:17;3.28;;;2.65;;
54005;SDS011;39919;38.160;-122.260;2023-02-08T04:43:46;4.30;;;2.92;;
54005;SDS011;39919;38.160;-122.260;2023-02-08T04:46:15;5.05;;;2.72;;
54005;SDS011;39919;38.160;-122.260;2023-02-08T04:48:44;6.03;;;3.58;;
54005;SDS011;39919;38.160;-122.260;2023-02-08T04:51:13;5.85;;;3.00;;
54005;SDS011;39919;38.160;-122.260;2023-02-08T04:53:44;3.78;;;2.60;;
54005;SDS011;39919;38.160;-122.260;2023-02-08T04:56:19;2.92;;;2.60;;
54005;SDS011;39919;38.160;-122.260;2023-02-08T04:58:48;3.35;;;2.63;;
54005;SDS011;39919;38.160;-122.260;2023-02-08T05:01:19;6.57;;;3.20;;
54005;SDS011;39919;38.160;-122.260;2023-02-08T05:03:48;2.45;;;1.98;;
54005;SDS011;39919;38.160;-122.260;2023-02-08T05:06:18;3.95;;;2.72;;
54005;SDS011;39919;38.160;-122.260;2023-02-08T05:08:48;4.45;;;2.17;;
54005;SDS011;39919;38.160;-122.260;2023-02-08T05:11:20;4.05;;;3.10;;
54005;SDS011;39919;38.160;-122.260;2023-02-08T05:13:50;6.50;;;3.60;;
54005;SDS011;39919;38.160;-122.260;2023-02-08T05:16:20;8.13;;;3.92;;
54005;SDS011;39919;38.160;-122.260;2023-02-08T05:18:49;4.25;;;2.58;;
54005;SDS011;39919;38.160;-122.260;2023-02-08T05:21:19;3.65;;;2.17;;
54005;SDS011;39919;38.160;-122.260;2023-02-08T05:23:50;4.03;;;2.83;;
54005;SDS011;39919;38.160;-122.260;2023-02-08T05:26:37;5.47;;;2.70;;
54005;SDS011;39919;38.160;-122.260;2023-02-08T05:29:06;3.15;;;1.90;;
54005;SDS011;39919;38.160;-122.260;2023-02-08T05:31:35;2.20;;;1.88;;
54005;SDS011;39919;38.160;-122.260;2023-02-08T05:34:05;8.25;;;2.72;;
54005;SDS011;39919;38.160;-122.260;2023-02-08T05:37:23;3.92;;;2.70;;
54005;SDS011;39919;38.160;-122.260;2023-02-08T05:39:47;2.25;;;1.30;;
54005;SDS011;39919;38.160;-122.260;2023-02-08T05:42:19;3.97;;;2.47;;
54005;SDS011;39919;38.160;-122.260;2023-02-08T05:44:48;5.60;;;2.42;;
54005;SDS011;39919;38.160;-122.260;2023-02-08T05:47:20;2.67;;;2.35;;
54005;SDS011;39919;38.160;-122.260;2023-02-08T05:49:52;4.07;;;3.08;;
54005;SDS011;39919;38.160;-122.260;2023-02-08T05:52:21;3.25;;;2.70;;
54005;SDS011;39919;38.160;-122.260;2023-02-08T05:55:01;13.93;;;3.65;;
54005;SDS011;39919;38.160;-122.260;2023-02-08T06:00:29;10.07;;;3.20;;
54005;SDS011;39919;38.160;-122.260;2023-02-08T06:02:58;2.65;;;1.70;;
54005;SDS011;39919;38.160;-122.260;2023-02-08T06:05:27;4.80;;;2.63;;
54005;SDS011;39919;38.160;-122.260;2023-02-08T06:07:57;4.32;;;2.00;;
54005;SDS011;39919;38.160;-122.260;2023-02-08T06:10:30;3.70;;;2.70;;
54005;SDS011;39919;38.160;-122.260;2023-02-08T06:13:02;2.70;;;2.05;;
54005;SDS011;39919;38.160;-122.260;2023-02-08T06:15:31;6.80;;;2.75;;
54005;SDS011;39919;38.160;-122.260;2023-02-08T06:18:03;2.65;;;1.50;;
54005;SDS011;39919;38.160;-122.260;2023-02-08T06:20:33;5.72;;;3.08;;
54005;SDS011;39919;38.160;-122.260;2023-02-08T06:23:05;3.53;;;2.17;;
54005;SDS011;39919;38.160;-122.260;2023-02-08T06:25:38;4.82;;;2.80;;
54005;SDS011;39919;38.160;-122.260;2023-02-08T06:28:07;3.75;;;2.80;;
54005;SDS011;39919;38.160;-122.260;2023-02-08T06:30:37;3.75;;;2.72;;
54005;SDS011;39919;38.160;-122.260;2023-02-08T06:33:06;6.70;;;3.20;;
54005;SDS011;39919;38.160;-122.260;2023-02-08T06:35:35;3.47;;;2.42;;
54005;SDS011;39919;38.160;-122.260;2023-02-08T06:38:07;2.72;;;2.50;;
54005;SDS011;39919;38.160;-122.260;2023-02-08T06:40:52;6.03;;;3.22;;
54005;SDS011;39919;38.160;-122.260;2023-02-08T06:43:22;3.38;;;2.60;;
54005;SDS011;39919;38.160;-122.260;2023-02-08T06:45:51;4.05;;;2.67;;
54005;SDS011;39919;38.160;-122.260;2023-02-08T06:48:20;8.70;;;3.65;;
54005;SDS011;39919;38.160;-122.260;2023-02-08T06:50:51;4.13;;;3.47;;
54005;SDS011;39919;38.160;-122.260;2023-02-08T06:53:20;3.63;;;2.88;;
54005;SDS011;39919;38.160;-122.260;2023-02-08T06:55:49;4.00;;;3.03;;
54005;SDS011;39919;38.160;-122.260;2023-02-08T06:58:21;3.72;;;2.35;;
54005;SDS011;39919;38.160;-122.260;2023-02-08T07:00:56;6.63;;;2.53;;
54005;SDS011;39919;38.160;-122.260;2023-02-08T07:03:40;3.65;;;2.88;;
54005;SDS011;39919;38.160;-122.260;2023-02-08T07:06:13;3.92;;;2.90;;
54005;SDS011;39919;38.160;-122.260;2023-02-08T07:08:43;3.63;;;2.15;;
54005;SDS011;39919;38.160;-122.260;2023-02-08T07:11:16;2.13;;;1.85;;
54005;SDS011;39919;38.160;-122.260;2023-02-08T07:13:47;6.55;;;2.42;;
54005;SDS011;39919;38.160;-122.260;2023-02-08T07:16:19;3.08;;;1.75;;
54005;SDS011;39919;38.160;-122.260;2023-02-08T07:18:48;3.85;;;2.08;;
54005;SDS011;39919;38.160;-122.260;2023-02-08T07:21:17;2.25;;;1.83;;
54005;SDS011;39919;38.160;-122.260;2023-02-08T07:23:47;5.05;;;3.22;;
54005;SDS011;39919;38.160;-122.260;2023-02-08T07:26:21;10.07;;;4.47;;
54005;SDS011;39919;38.160;-122.260;2023-02-08T07:28:50;5.75;;;3.40;;
54005;SDS011;39919;38.160;-122.260;2023-02-08T07:31:19;9.05;;;3.83;;
54005;SDS011;39919;38.160;-122.260;2023-02-08T07:33:48;5.65;;;3.30;;
54005;SDS011;39919;38.160;-122.260;2023-02-08T07:36:17;4.03;;;3.28;;
54005;SDS011;39919;38.160;-122.260;2023-02-08T07:38:47;7.70;;;3.78;;
54005;SDS011;39919;38.160;-122.260;2023-02-08T07:41:16;5.20;;;3.28;;
54005;SDS011;39919;38.160;-122.260;2023-02-08T07:43:47;8.23;;;3.70;;
54005;SDS011;39919;38.160;-122.260;2023-02-08T07:46:16;4.88;;;3.20;;
54005;SDS011;39919;38.160;-122.260;2023-02-08T07:48:52;4.13;;;3.17;;
54005;SDS011;39919;38.160;-122.260;2023-02-08T07:51:21;5.00;;;3.00;;
54005;SDS011;39919;38.160;-122.260;2023-02-08T07:53:50;2.55;;;2.35;;
54005;SDS011;39919;38.160;-122.260;2023-02-08T07:56:20;4.03;;;2.20;;
54005;SDS011;39919;38.160;-122.260;2023-02-08T07:58:53;1.63;;;1.50;;
54005;SDS011;39919;38.160;-122.260;2023-02-08T08:01:22;5.50;;;3.13;;
54005;SDS011;39919;38.160;-122.260;2023-02-08T08:03:51;7.10;;;4.82;;
54005;SDS011;39919;38.160;-122.260;2023-02-08T08:06:21;4.55;;;3.33;;
54005;SDS011;39919;38.160;-122.260;2023-02-08T08:08:51;3.65;;;3.08;;
54005;SDS011;39919;38.160;-122.260;2023-02-08T08:11:22;3.58;;;2.53;;
54005;SDS011;39919;38.160;-122.260;2023-02-08T08:13:53;3.47;;;2.15;;
54005;SDS011;39919;38.160;-122.260;2023-02-08T08:16:22;3.30;;;3.00;;
54005;SDS011;39919;38.160;-122.260;2023-02-08T08:18:52;5.85;;;3.17;;
54005;SDS011;39919;38.160;-122.260;2023-02-08T08:21:21;3.28;;;2.30;;
54005;SDS011;39919;38.160;-122.260;2023-02-08T08:23:50;3.63;;;2.67;;
54005;SDS011;39919;38.160;-122.260;2023-02-08T08:26:28;4.20;;;2.80;;
54005;SDS011;39919;38.160;-122.260;2023-02-08T08:28:59;2.92;;;2.17;;
54005;SDS011;39919;38.160;-122.260;2023-02-08T08:31:31;6.05;;;2.35;;
54005;SDS011;39919;38.160;-122.260;2023-02-08T08:34:01;4.65;;;2.65;;
54005;SDS011;39919;38.160;-122.260;2023-02-08T08:36:31;6.40;;;3.28;;
54005;SDS011;39919;38.160;-122.260;2023-02-08T08:39:00;5.57;;;2.50;;
54005;SDS011;39919;38.160;-122.260;2023-02-08T08:41:29;4.95;;;3.25;;
54005;SDS011;39919;38.160;-122.260;2023-02-08T08:44:00;5.40;;;2.70;;
54005;SDS011;39919;38.160;-122.260;2023-02-08T08:46:32;5.72;;;3.28;;
54005;SDS011;39919;38.160;-122.260;2023-02-08T08:49:01;3.80;;;2.58;;
54005;SDS011;39919;38.160;-122.260;2023-02-08T08:51:30;6.97;;;3.28;;
54005;SDS011;39919;38.160;-122.260;2023-02-08T08:54:00;3.60;;;2.55;;
54005;SDS011;39919;38.160;-122.260;2023-02-08T08:56:30;2.58;;;1.92;;
54005;SDS011;39919;38.160;-122.260;2023-02-08T08:59:01;3.40;;;2.17;;
54005;SDS011;39919;38.160;-122.260;2023-02-08T09:01:30;5.22;;;2.88;;
54005;SDS011;39919;38.160;-122.260;2023-02-08T09:03:59;5.20;;;2.33;;
54005;SDS011;39919;38.160;-122.260;2023-02-08T09:06:28;4.55;;;2.55;;
54005;SDS011;39919;38.160;-122.260;2023-02-08T09:08:58;5.72;;;3.00;;
54005;SDS011;39919;38.160;-122.260;2023-02-08T09:11:27;3.05;;;1.92;;
54005;SDS011;39919;38.160;-122.260;2023-02-08T09:13:57;3.90;;;2.70;;
54005;SDS011;39919;38.160;-122.260;2023-02-08T09:16:31;2.72;;;2.33;;
54005;SDS011;39919;38.160;-122.260;2023-02-08T09:19:03;6.43;;;3.30;;
54005;SDS011;39919;38.160;-122.260;2023-02-08T09:21:34;3.97;;;2.63;;
54005;SDS011;39919;38.160;-122.260;2023-02-08T09:24:06;5.07;;;2.60;;
54005;SDS011;39919;38.160;-122.260;2023-02-08T09:26:37;4.13;;;2.47;;
54005;SDS011;39919;38.160;-122.260;2023-02-08T09:29:08;3.55;;;3.13;;
54005;SDS011;39919;38.160;-122.260;2023-02-08T09:31:37;4.43;;;2.60;;
54005;SDS011;39919;38.160;-122.260;2023-02-08T09:34:06;3.70;;;2.05;;
54005;SDS011;39919;38.160;-122.260;2023-02-08T09:36:37;8.05;;;2.90;;
54005;SDS011;39919;38.160;-122.260;2023-02-08T09:39:07;5.35;;;2.92;;
54005;SDS011;39919;38.160;-122.260;2023-02-08T09:41:42;6.05;;;3.03;;
54005;SDS011;39919;38.160;-122.260;2023-02-08T09:44:25;4.82;;;3.03;;
54005;SDS011;39919;38.160;-122.260;2023-02-08T09:47:00;6.30;;;2.65;;
54005;SDS011;39919;38.160;-122.260;2023-02-08T09:49:35;4.15;;;2.55;;
54005;SDS011;39919;38.160;-122.260;2023-02-08T09:52:08;4.20;;;2.47;;
54005;SDS011;39919;38.160;-122.260;2023-02-08T09:54:40;5.07;;;2.35;;
54005;SDS011;39919;38.160;-122.260;2023-02-08T09:57:15;3.67;;;2.22;;
54005;SDS011;39919;38.160;-122.260;2023-02-08T09:59:50;3.22;;;2.47;;
54005;SDS011;39919;38.160;-122.260;2023-02-08T10:02:22;2.78;;;1.67;;
54005;SDS011;39919;38.160;-122.260;2023-02-08T10:04:55;4.20;;;2.65;;
54005;SDS011;39919;38.160;-122.260;2023-02-08T10:07:29;5.03;;;2.35;;
54005;SDS011;39919;38.160;-122.260;2023-02-08T10:10:01;2.90;;;1.58;;
54005;SDS011;39919;38.160;-122.260;2023-02-08T10:15:16;4.18;;;2.70;;
54005;SDS011;39919;38.160;-122.260;2023-02-08T10:21:00;8.35;;;2.55;;
54005;SDS011;39919;38.160;-122.260;2023-02-08T10:23:53;5.18;;;2.47;;
54005;SDS011;39919;38.160;-122.260;2023-02-08T10:26:36;3.75;;;2.42;;
54005;SDS011;39919;38.160;-122.260;2023-02-08T10:32:12;6.90;;;2.13;;
54005;SDS011;39919;38.160;-122.260;2023-02-08T10:34:53;5.30;;;2.60;;
54005;SDS011;39919;38.160;-122.260;2023-02-08T10:37:28;2.88;;;2.00;;
54005;SDS011;39919;38.160;-122.260;2023-02-08T10:40:06;4.88;;;2.35;;
54005;SDS011;39919;38.160;-122.260;2023-02-08T10:42:47;3.47;;;2.22;;
54005;SDS011;39919;38.160;-122.260;2023-02-08T10:45:25;3.58;;;2.58;;
54005;SDS011;39919;38.160;-122.260;2023-02-08T10:48:01;5.50;;;2.80;;
54005;SDS011;39919;38.160;-122.260;2023-02-08T10:50:36;4.30;;;2.50;;
54005;SDS011;39919;38.160;-122.260;2023-02-08T10:53:08;3.67;;;2.75;;
54005;SDS011;39919;38.160;-122.260;2023-02-08T10:55:42;4.45;;;2.42;;
54005;SDS011;39919;38.160;-122.260;2023-02-08T10:58:13;4.72;;;2.88;;
54005;SDS011;39919;38.160;-122.260;2023-02-08T11:00:44;4.50;;;2.13;;
54005;SDS011;39919;38.160;-122.260;2023-02-08T11:03:17;3.65;;;2.90;;
54005;SDS011;39919;38.160;-122.260;2023-02-08T11:05:52;4.82;;;2.92;;
54005;SDS011;39919;38.160;-122.260;2023-02-08T11:08:22;3.70;;;2.40;;
54005;SDS011;39919;38.160;-122.260;2023-02-08T11:10:56;3.45;;;2.42;;
54005;SDS011;39919;38.160;-122.260;2023-02-08T11:13:30;4.07;;;2.70;;
54005;SDS011;39919;38.160;-122.260;2023-02-08T11:16:02;3.13;;;2.50;;
54005;SDS011;39919;38.160;-122.260;2023-02-08T11:18:35;2.88;;;2.38;;
54005;SDS011;39919;38.160;-122.260;2023-02-08T11:21:07;2.72;;;1.90;;
54005;SDS011;39919;38.160;-122.260;2023-02-08T11:23:48;5.18;;;2.15;;
54005;SDS011;39919;38.160;-122.260;2023-02-08T11:26:20;3.85;;;2.58;;
54005;SDS011;39919;38.160;-122.260;2023-02-08T11:28:58;5.18;;;3.13;;
54005;SDS011;39919;38.160;-122.260;2023-02-08T11:31:29;6.43;;;3.15;;
54005;SDS011;39919;38.160;-122.260;2023-02-08T11:34:03;6.72;;;3.55;;
54005;SDS011;39919;38.160;-122.260;2023-02-08T11:36:34;4.38;;;2.78;;
54005;SDS011;39919;38.160;-122.260;2023-02-08T11:39:17;6.68;;;2.70;;
54005;SDS011;39919;38.160;-122.260;2023-02-08T11:41:58;2.63;;;1.98;;
54005;SDS011;39919;38.160;-122.260;2023-02-08T11:44:29;3.72;;;2.50;;
54005;SDS011;39919;38.160;-122.260;2023-02-08T11:47:01;4.00;;;2.72;;
54005;SDS011;39919;38.160;-122.260;2023-02-08T11:49:34;2.97;;;1.90;;
54005;SDS011;39919;38.160;-122.260;2023-02-08T11:52:06;3.40;;;1.98;;
54005;SDS011;39919;38.160;-122.260;2023-02-08T11:54:50;4.28;;;2.53;;
54005;SDS011;39919;38.160;-122.260;2023-02-08T11:57:49;1.90;;;1.60;;
54005;SDS011;39919;38.160;-122.260;2023-02-08T12:00:21;3.55;;;2.20;;
54005;SDS011;39919;38.160;-122.260;2023-02-08T12:02:55;2.83;;;1.70;;
54005;SDS011;39919;38.160;-122.260;2023-02-08T12:05:33;4.25;;;2.00;;
54005;SDS011;39919;38.160;-122.260;2023-02-08T12:08:11;6.32;;;2.10;;
54005;SDS011;39919;38.160;-122.260;2023-02-08T12:10:47;3.03;;;2.50;;
54005;SDS011;39919;38.160;-122.260;2023-02-08T12:13:34;6.22;;;3.42;;
54005;SDS011;39919;38.160;-122.260;2023-02-08T12:16:21;5.57;;;3.30;;
54005;SDS011;39919;38.160;-122.260;2023-02-08T12:19:05;6.32;;;3.30;;
54005;SDS011;39919;38.160;-122.260;2023-02-08T12:21:52;4.60;;;2.90;;
54005;SDS011;39919;38.160;-122.260;2023-02-08T12:24:27;5.88;;;2.58;;
54005;SDS011;39919;38.160;-122.260;2023-02-08T12:27:09;8.05;;;3.28;;
54005;SDS011;39919;38.160;-122.260;2023-02-08T12:29:53;4.05;;;2.95;;
54005;SDS011;39919;38.160;-122.260;2023-02-08T12:35:34;4.20;;;2.38;;
54005;SDS011;39919;38.160;-122.260;2023-02-08T12:38:17;4.05;;;2.35;;
54005;SDS011;39919;38.160;-122.260;2023-02-08T12:41:12;4.10;;;2.38;;
54005;SDS011;39919;38.160;-122.260;2023-02-08T12:43:49;2.42;;;1.70;;
54005;SDS011;39919;38.160;-122.260;2023-02-08T12:49:03;5.07;;;2.38;;
54005;SDS011;39919;38.160;-122.260;2023-02-08T12:51:49;12.77;;;3.85;;
54005;SDS011;39919;38.160;-122.260;2023-02-08T12:54:29;5.68;;;2.33;;
54005;SDS011;39919;38.160;-122.260;2023-02-08T12:57:01;6.47;;;2.78;;
54005;SDS011;39919;38.160;-122.260;2023-02-08T12:59:33;4.82;;;2.40;;
54005;SDS011;39919;38.160;-122.260;2023-02-08T13:02:10;3.45;;;2.13;;
54005;SDS011;39919;38.160;-122.260;2023-02-08T13:04:44;5.95;;;2.83;;
54005;SDS011;39919;38.160;-122.260;2023-02-08T13:07:18;5.55;;;3.65;;
54005;SDS011;39919;38.160;-122.260;2023-02-08T13:09:54;3.85;;;2.60;;
54005;SDS011;39919;38.160;-122.260;2023-02-08T13:12:29;3.17;;;1.88;;
54005;SDS011;39919;38.160;-122.260;2023-02-08T13:18:03;4.22;;;1.98;;
54005;SDS011;39919;38.160;-122.260;2023-02-08T13:20:43;3.40;;;1.95;;
54005;SDS011;39919;38.160;-122.260;2023-02-08T13:23:17;5.18;;;1.88;;
54005;SDS011;39919;38.160;-122.260;2023-02-08T13:25:53;4.05;;;2.72;;
54005;SDS011;39919;38.160;-122.260;2023-02-08T13:28:24;9.55;;;2.97;;
54005;SDS011;39919;38.160;-122.260;2023-02-08T13:30:55;4.35;;;2.30;;
54005;SDS011;39919;38.160;-122.260;2023-02-08T13:33:38;1.75;;;1.50;;
54005;SDS011;39919;38.160;-122.260;2023-02-08T13:36:17;3.20;;;2.20;;
54005;SDS011;39919;38.160;-122.260;2023-02-08T13:38:51;2.40;;;1.60;;
54005;SDS011;39919;38.160;-122.260;2023-02-08T13:41:23;1.80;;;1.58;;
54005;SDS011;39919;38.160;-122.260;2023-02-08T13:43:54;4.88;;;2.83;;
54005;SDS011;39919;38.160;-122.260;2023-02-08T13:46:25;2.40;;;2.20;;
54005;SDS011;39919;38.160;-122.260;2023-02-08T13:49:01;5.20;;;2.28;;
54005;SDS011;39919;38.160;-122.260;2023-02-08T13:51:50;3.85;;;2.30;;
54005;SDS011;39919;38.160;-122.260;2023-02-08T13:54:20;4.75;;;2.13;;
54005;SDS011;39919;38.160;-122.260;2023-02-08T13:56:51;4.00;;;2.95;;
54005;SDS011;39919;38.160;-122.260;2023-02-08T13:59:29;3.88;;;1.83;;
54005;SDS011;39919;38.160;-122.260;2023-02-08T14:08:01;3.83;;;1.98;;
54005;SDS011;39919;38.160;-122.260;2023-02-08T14:10:33;5.22;;;2.55;;
54005;SDS011;39919;38.160;-122.260;2023-02-08T14:13:15;3.83;;;2.55;;
54005;SDS011;39919;38.160;-122.260;2023-02-08T14:18:55;5.95;;;3.03;;
54005;SDS011;39919;38.160;-122.260;2023-02-08T14:21:30;6.32;;;3.20;;
54005;SDS011;39919;38.160;-122.260;2023-02-08T14:24:03;8.23;;;3.20;;
54005;SDS011;39919;38.160;-122.260;2023-02-08T14:26:34;4.43;;;2.78;;
54005;SDS011;39919;38.160;-122.260;2023-02-08T14:29:06;9.65;;;3.33;;
54005;SDS011;39919;38.160;-122.260;2023-02-08T14:31:36;4.05;;;2.80;;
54005;SDS011;39919;38.160;-122.260;2023-02-08T14:34:17;9.35;;;3.33;;
54005;SDS011;39919;38.160;-122.260;2023-02-08T14:36:57;11.20;;;3.65;;
54005;SDS011;39919;38.160;-122.260;2023-02-08T14:39:29;17.30;;;4.43;;
54005;SDS011;39919;38.160;-122.260;2023-02-08T14:42:00;12.13;;;4.65;;
54005;SDS011;39919;38.160;-122.260;2023-02-08T14:50:33;13.05;;;4.68;;
54005;SDS011;39919;38.160;-122.260;2023-02-08T14:53:17;7.05;;;4.10;;
54005;SDS011;39919;38.160;-122.260;2023-02-08T14:56:06;7.30;;;3.53;;
54005;SDS011;39919;38.160;-122.260;2023-02-08T14:58:49;6.13;;;2.92;;
54005;SDS011;39919;38.160;-122.260;2023-02-08T15:01:28;3.65;;;2.75;;
54005;SDS011;39919;38.160;-122.260;2023-02-08T15:04:04;3.53;;;2.60;;
54005;SDS011;39919;38.160;-122.260;2023-02-08T15:06:49;5.65;;;2.90;;
54005;SDS011;39919;38.160;-122.260;2023-02-08T15:09:35;8.90;;;3.95;;
54005;SDS011;39919;38.160;-122.260;2023-02-08T15:12:07;7.40;;;3.72;;
54005;SDS011;39919;38.160;-122.260;2023-02-08T15:14:42;8.32;;;3.70;;
54005;SDS011;39919;38.160;-122.260;2023-02-08T15:20:01;3.70;;;2.65;;
54005;SDS011;39919;38.160;-122.260;2023-02-08T15:22:33;5.65;;;3.03;;
54005;SDS011;39919;38.160;-122.260;2023-02-08T15:25:13;6.10;;;2.60;;
54005;SDS011;39919;38.160;-122.260;2023-02-08T15:27:53;8.18;;;3.78;;
54005;SDS011;39919;38.160;-122.260;2023-02-08T15:30:28;6.25;;;3.80;;
54005;SDS011;39919;38.160;-122.260;2023-02-08T15:33:02;8.77;;;3.38;;
54005;SDS011;39919;38.160;-122.260;2023-02-08T15:35:36;7.10;;;3.90;;
54005;SDS011;39919;38.160;-122.260;2023-02-08T15:38:08;7.18;;;3.78;;